createdAt,value
2022-11-18T00:01:36.103Z,20.90
2022-11-18T00:04:03.076Z,20.90
2022-11-18T00:06:31.081Z,20.90
2022-11-18T00:08:59.294Z,20.90
2022-11-18T00:11:45.182Z,20.90
2022-11-18T00:14:25.008Z,20.90
2022-11-18T00:16:57.793Z,20.90
2022-11-18T00:19:28.203Z,20.90
2022-11-18T00:21:55.667Z,20.90
2022-11-18T00:24:22.971Z,20.90
2022-11-18T00:26:50.518Z,20.90
2022-11-18T00:29:18.300Z,20.90
2022-11-18T00:31:45.929Z,20.90
2022-11-18T00:34:17.711Z,20.90
2022-11-18T00:36:45.289Z,21.00
2022-11-18T00:39:13.399Z,20.90
2022-11-18T00:41:58.886Z,21.00
2022-11-18T00:44:26.100Z,21.00
2022-11-18T00:46:57.560Z,21.00
2022-11-18T00:49:25.463Z,21.10
2022-11-18T00:51:53.062Z,21.00
2022-11-18T00:54:24.200Z,21.00
2022-11-18T00:56:51.111Z,21.00
2022-11-18T00:59:18.807Z,21.00
2022-11-18T01:01:46.491Z,21.00
2022-11-18T01:04:13.434Z,21.00
2022-11-18T01:06:44.241Z,21.00
2022-11-18T01:09:11.679Z,21.00
2022-11-18T01:11:56.820Z,21.00
2022-11-18T01:14:27.040Z,21.00
2022-11-18T01:16:56.601Z,21.00
2022-11-18T01:19:24.868Z,21.00
2022-11-18T01:21:52.803Z,21.00
2022-11-18T01:24:19.787Z,21.00
2022-11-18T01:26:49.943Z,21.00
2022-11-18T01:29:17.841Z,21.10
2022-11-18T01:32:01.828Z,21.00
2022-11-18T01:34:32.197Z,21.00
2022-11-18T01:36:59.737Z,21.00
2022-11-18T01:39:26.689Z,21.00
2022-11-18T01:41:54.241Z,21.00
2022-11-18T01:44:58.450Z,21.00
2022-11-18T01:47:38.084Z,21.10
2022-11-18T01:50:06.733Z,21.00
2022-11-18T01:52:35.097Z,21.10
2022-11-18T01:55:26.439Z,21.10
2022-11-18T01:58:02.286Z,21.10
2022-11-18T02:00:29.862Z,21.10
2022-11-18T02:02:58.084Z,21.10
2022-11-18T02:05:26.625Z,21.00
2022-11-18T02:07:54.020Z,21.00
2022-11-18T02:10:25.138Z,21.00
2022-11-18T02:12:54.162Z,21.10
2022-11-18T02:15:49.823Z,21.10
2022-11-18T02:18:44.191Z,21.10
2022-11-18T02:21:58.920Z,21.10
2022-11-18T02:24:52.759Z,21.10
2022-11-18T02:27:52.196Z,21.10
2022-11-18T02:30:19.586Z,21.10
2022-11-18T02:32:55.265Z,21.10
2022-11-18T02:35:42.740Z,21.10
2022-11-18T02:38:18.689Z,21.10
2022-11-18T02:40:55.966Z,21.10
2022-11-18T02:43:32.775Z,21.10
2022-11-18T02:46:04.174Z,21.10
2022-11-18T02:48:33.973Z,21.10
2022-11-18T02:51:03.133Z,21.10
2022-11-18T02:53:31.741Z,21.10
2022-11-18T02:56:00.911Z,21.10
2022-11-18T02:58:31.164Z,21.10
2022-11-18T03:01:02.118Z,21.10
2022-11-18T03:03:31.849Z,21.10
2022-11-18T03:06:17.280Z,21.10
2022-11-18T03:09:28.263Z,21.10
2022-11-18T03:12:20.407Z,21.10
2022-11-18T03:14:56.489Z,21.10
2022-11-18T03:17:39.821Z,21.10
2022-11-18T03:20:22.232Z,21.10
2022-11-18T03:23:11.927Z,21.10
2022-11-18T03:26:07.663Z,21.10
2022-11-18T03:28:45.729Z,21.10
2022-11-18T03:31:16.427Z,21.10
2022-11-18T03:33:48.251Z,21.10
2022-11-18T03:36:19.240Z,21.10
2022-11-18T03:38:53.707Z,21.10
2022-11-18T03:41:22.741Z,21.10
2022-11-18T03:43:58.130Z,21.10
2022-11-18T03:46:51.243Z,21.20
2022-11-18T03:49:26.539Z,21.10
2022-11-18T03:52:00.955Z,21.20
2022-11-18T03:54:33.746Z,21.20
2022-11-18T03:57:09.489Z,21.10
2022-11-18T03:59:40.800Z,21.20
2022-11-18T04:02:21.190Z,21.20
2022-11-18T04:04:51.321Z,21.20
2022-11-18T04:07:35.883Z,21.20
2022-11-18T04:10:10.032Z,21.20
2022-11-18T04:12:42.774Z,21.20
2022-11-18T04:15:10.631Z,21.20
2022-11-18T04:17:38.044Z,21.20
2022-11-18T04:20:05.829Z,21.20
2022-11-18T04:22:32.761Z,21.20
2022-11-18T04:25:02.752Z,21.20
2022-11-18T04:27:30.164Z,21.20
2022-11-18T04:29:58.894Z,21.20
2022-11-18T04:32:26.173Z,21.20
2022-11-18T04:34:54.050Z,21.20
2022-11-18T04:37:21.451Z,21.20
2022-11-18T04:39:48.871Z,21.20
2022-11-18T04:42:15.845Z,21.20
2022-11-18T04:44:46.900Z,21.20
2022-11-18T04:47:14.053Z,21.20
2022-11-18T04:49:41.414Z,21.20
2022-11-18T04:52:11.269Z,21.20
2022-11-18T04:54:38.644Z,21.20
2022-11-18T04:57:06.136Z,21.20
2022-11-18T04:59:44.673Z,21.20
2022-11-18T05:02:14.734Z,21.20
2022-11-18T05:04:41.642Z,21.20
2022-11-18T05:07:08.590Z,21.30
2022-11-18T05:09:35.554Z,21.20
2022-11-18T05:12:21.004Z,21.30
2022-11-18T05:14:50.881Z,21.30
2022-11-18T05:17:18.701Z,21.30
2022-11-18T05:19:45.644Z,21.30
2022-11-18T05:22:12.784Z,21.30
2022-11-18T05:24:39.613Z,21.30
2022-11-18T05:27:06.587Z,21.30
2022-11-18T05:29:33.757Z,21.30
2022-11-18T05:32:00.613Z,21.20
2022-11-18T05:34:27.961Z,21.30
2022-11-18T05:36:57.616Z,21.20
2022-11-18T05:39:24.690Z,21.20
2022-11-18T05:42:10.133Z,21.30
2022-11-18T05:44:37.509Z,21.20
2022-11-18T05:47:09.005Z,21.30
2022-11-18T05:49:46.210Z,21.20
2022-11-18T05:52:13.541Z,21.30
2022-11-18T05:54:50.564Z,21.20
2022-11-18T05:57:18.141Z,21.30
2022-11-18T05:59:45.080Z,21.20
2022-11-18T06:02:17.038Z,21.30
2022-11-18T06:04:48.790Z,21.30
2022-11-18T06:07:23.866Z,21.30
2022-11-18T06:10:02.075Z,21.30
2022-11-18T06:12:37.181Z,21.30
2022-11-18T06:15:13.495Z,21.30
2022-11-18T06:17:50.042Z,21.30
2022-11-18T06:20:19.723Z,21.30
2022-11-18T06:22:51.309Z,21.30
2022-11-18T06:25:21.503Z,21.30
2022-11-18T06:27:53.941Z,21.30
2022-11-18T06:30:20.822Z,21.30
2022-11-18T06:32:47.672Z,21.40
2022-11-18T06:35:14.633Z,21.30
2022-11-18T06:37:41.995Z,21.30
2022-11-18T06:40:09.955Z,21.30
2022-11-18T06:42:55.098Z,21.30
2022-11-18T06:45:22.592Z,21.30
2022-11-18T06:47:49.523Z,21.30
2022-11-18T06:50:16.828Z,21.30
2022-11-18T06:52:43.701Z,21.30
2022-11-18T06:55:11.040Z,21.30
2022-11-18T06:57:38.149Z,21.30
2022-11-18T07:00:05.855Z,21.30
2022-11-18T07:02:32.782Z,21.40
2022-11-18T07:05:00.176Z,21.30
2022-11-18T07:07:27.693Z,21.30
2022-11-18T07:09:54.661Z,21.30
2022-11-18T07:12:22.504Z,21.30
2022-11-18T07:14:49.430Z,21.30
2022-11-18T07:17:18.541Z,21.30
2022-11-18T07:19:45.485Z,21.30
2022-11-18T07:22:12.322Z,21.30
2022-11-18T07:24:39.812Z,21.30
2022-11-18T07:27:06.713Z,21.30
2022-11-18T07:29:34.154Z,21.30
2022-11-18T07:32:01.083Z,21.30
2022-11-18T07:34:27.991Z,21.40
2022-11-18T07:36:55.414Z,21.30
2022-11-18T07:39:25.244Z,21.30
2022-11-18T07:41:52.631Z,21.30
2022-11-18T07:44:19.552Z,21.30
2022-11-18T07:46:49.761Z,21.30
2022-11-18T07:49:17.475Z,21.30
2022-11-18T07:51:45.121Z,21.30
2022-11-18T07:54:14.583Z,21.30
2022-11-18T07:56:41.962Z,21.30
2022-11-18T07:59:09.554Z,21.30
2022-11-18T08:01:37.016Z,21.30
2022-11-18T08:04:09.643Z,21.20
2022-11-18T08:06:37.323Z,21.20
2022-11-18T08:09:05.530Z,21.20
2022-11-18T08:11:34.284Z,21.20
2022-11-18T08:14:01.416Z,21.20
2022-11-18T08:16:29.417Z,21.20
2022-11-18T08:18:58.753Z,21.20
2022-11-18T08:21:25.667Z,21.20
2022-11-18T08:23:57.285Z,21.20
2022-11-18T08:26:25.241Z,21.20
2022-11-18T08:28:52.385Z,21.20
2022-11-18T08:31:28.752Z,21.20
2022-11-18T08:34:04.746Z,21.20
2022-11-18T08:36:37.164Z,21.20
2022-11-18T08:39:11.200Z,21.20
2022-11-18T08:41:43.301Z,21.10
2022-11-18T08:44:17.096Z,21.10
2022-11-18T08:46:47.850Z,21.10
2022-11-18T08:49:15.505Z,21.20
2022-11-18T08:51:42.648Z,21.10
2022-11-18T08:54:09.549Z,21.10
2022-11-18T08:56:36.481Z,21.10
2022-11-18T08:59:03.496Z,21.10
2022-11-18T09:01:30.485Z,21.10
2022-11-18T09:03:57.929Z,21.10
2022-11-18T09:06:25.315Z,21.10
2022-11-18T09:08:53.288Z,21.10
2022-11-18T09:11:23.251Z,21.10
2022-11-18T09:14:53.554Z,21.10
2022-11-18T09:16:45.669Z,21.10
2022-11-18T09:19:45.707Z,21.10
2022-11-18T09:22:03.444Z,21.10
2022-11-18T09:24:31.027Z,21.10
2022-11-18T09:26:57.876Z,21.10
2022-11-18T09:29:26.489Z,21.10
2022-11-18T09:31:54.410Z,21.10
2022-11-18T09:34:22.626Z,21.10
2022-11-18T09:36:49.825Z,21.10
2022-11-18T09:39:16.953Z,21.10
2022-11-18T09:41:55.520Z,21.10
2022-11-18T09:44:40.060Z,21.10
2022-11-18T09:47:32.235Z,21.10
2022-11-18T09:50:20.327Z,21.10
2022-11-18T09:53:06.777Z,21.10
2022-11-18T09:55:37.378Z,21.10
2022-11-18T09:58:06.233Z,21.10
2022-11-18T10:00:34.472Z,21.10
2022-11-18T10:03:10.160Z,21.00
2022-11-18T10:05:49.154Z,21.00
2022-11-18T10:08:22.840Z,21.00
2022-11-18T10:11:15.541Z,21.00
2022-11-18T10:14:19.554Z,21.00
2022-11-18T10:17:05.697Z,21.00
2022-11-18T10:19:42.669Z,21.00
2022-11-18T10:22:28.348Z,21.00
2022-11-18T10:24:57.837Z,21.00
2022-11-18T10:27:34.938Z,21.00
2022-11-18T10:30:03.025Z,21.00
2022-11-18T10:32:29.790Z,21.00
2022-11-18T10:34:58.790Z,20.90
2022-11-18T10:40:28.159Z,21.00
2022-11-18T10:42:55.112Z,21.00
2022-11-18T10:45:21.992Z,21.00
2022-11-18T10:48:03.866Z,21.00
2022-11-18T10:50:36.059Z,21.00
2022-11-18T10:53:05.980Z,21.10
2022-11-18T10:55:33.742Z,21.10
2022-11-18T10:58:10.630Z,21.10
2022-11-18T11:00:39.366Z,21.10
2022-11-18T11:03:37.789Z,21.10
2022-11-18T11:06:26.465Z,21.10
2022-11-18T11:08:56.362Z,21.10
2022-11-18T11:11:32.232Z,21.10
2022-11-18T11:14:07.540Z,21.10
2022-11-18T11:16:57.414Z,21.10
2022-11-18T11:19:31.201Z,21.10
2022-11-18T11:21:58.589Z,21.10
2022-11-18T11:24:28.147Z,21.10
2022-11-18T11:30:18.488Z,21.10
2022-11-18T11:33:10.299Z,21.10
2022-11-18T11:35:52.079Z,21.20
2022-11-18T11:38:37.626Z,21.20
2022-11-18T11:41:18.249Z,21.20
2022-11-18T11:44:19.809Z,21.20
2022-11-18T11:47:23.155Z,21.20
2022-11-18T11:49:54.959Z,21.20
2022-11-18T11:52:50.044Z,21.20
2022-11-18T11:55:42.875Z,21.10
2022-11-18T11:58:52.742Z,21.20
2022-11-18T12:01:31.721Z,21.20
2022-11-18T12:04:30.600Z,21.20
2022-11-18T12:06:59.224Z,21.20
2022-11-18T12:10:06.761Z,21.20
2022-11-18T12:12:59.768Z,20.80
2022-11-18T12:15:36.280Z,20.80
2022-11-18T12:18:21.154Z,20.90
2022-11-18T12:20:50.795Z,20.90
2022-11-18T12:23:31.042Z,21.00
2022-11-18T12:26:09.982Z,21.10
2022-11-18T12:28:42.218Z,21.10
2022-11-18T12:31:18.356Z,21.10
2022-11-18T12:33:53.931Z,21.20
2022-11-18T12:36:36.285Z,21.10
2022-11-18T12:39:27.839Z,21.10
2022-11-18T12:42:21.894Z,21.10
2022-11-18T12:44:53.032Z,21.10
2022-11-18T12:47:41.688Z,21.10
2022-11-18T12:50:15.322Z,21.10
2022-11-18T12:52:42.057Z,21.20
2022-11-18T12:55:25.425Z,21.20
2022-11-18T12:57:52.585Z,21.20
2022-11-18T13:00:25.505Z,21.20
2022-11-18T13:02:56.944Z,21.20
2022-11-18T13:05:33.009Z,21.30
2022-11-18T13:08:18.156Z,21.30
2022-11-18T13:11:26.127Z,21.30
2022-11-18T13:14:12.408Z,21.30
2022-11-18T13:16:58.290Z,21.20
2022-11-18T13:19:26.318Z,21.20
2022-11-18T13:22:17.049Z,21.20
2022-11-18T13:24:50.835Z,21.20
2022-11-18T13:27:51.592Z,21.20
2022-11-18T13:30:19.127Z,21.20
2022-11-18T13:32:48.379Z,21.30
2022-11-18T13:35:19.071Z,21.20
2022-11-18T13:37:53.060Z,21.30
2022-11-18T13:40:22.227Z,21.20
2022-11-18T13:42:50.392Z,21.30
2022-11-18T13:45:17.965Z,21.20
2022-11-18T13:47:51.315Z,21.30
2022-11-18T13:50:37.323Z,21.30
2022-11-18T13:53:30.592Z,21.30
2022-11-18T13:56:07.781Z,21.30
2022-11-18T13:59:15.575Z,21.30
2022-11-18T14:01:36.339Z,21.20
2022-11-18T14:04:05.709Z,21.30
2022-11-18T14:06:38.232Z,21.20
2022-11-18T14:09:29.812Z,21.20
2022-11-18T14:12:07.533Z,21.30
2022-11-18T14:14:37.125Z,21.30
2022-11-18T14:17:27.967Z,21.30
2022-11-18T14:20:07.427Z,21.30
2022-11-18T14:22:34.924Z,21.30
2022-11-18T14:25:17.711Z,21.30
2022-11-18T14:27:48.456Z,21.40
2022-11-18T14:30:39.898Z,21.40
2022-11-18T14:33:15.392Z,21.30
2022-11-18T14:35:52.050Z,21.30
2022-11-18T14:39:04.488Z,21.30
2022-11-18T14:41:47.187Z,21.30
2022-11-18T14:44:15.020Z,21.30
2022-11-18T14:46:44.447Z,21.20
2022-11-18T14:49:15.770Z,21.20
2022-11-18T14:51:42.858Z,21.30
2022-11-18T14:54:14.061Z,21.30
2022-11-18T14:56:41.804Z,21.30
2022-11-18T14:59:13.371Z,21.40
2022-11-18T15:01:44.500Z,21.30
2022-11-18T15:04:11.685Z,21.30
2022-11-18T15:06:39.621Z,21.30
2022-11-18T15:09:10.160Z,21.30
2022-11-18T15:11:37.108Z,21.30
2022-11-18T15:14:03.936Z,21.30
2022-11-18T15:16:34.186Z,21.30
2022-11-18T15:19:03.571Z,21.30
2022-11-18T15:21:33.645Z,21.30
2022-11-18T15:24:01.303Z,21.40
2022-11-18T15:26:34.252Z,21.40
2022-11-18T15:29:01.104Z,21.40
2022-11-18T15:31:28.147Z,21.40
2022-11-18T15:33:55.120Z,21.20
2022-11-18T15:36:25.145Z,21.20
2022-11-18T15:38:54.216Z,21.20
2022-11-18T15:41:26.867Z,21.20
2022-11-18T15:44:22.549Z,21.20
2022-11-18T15:46:48.204Z,21.20
2022-11-18T15:49:19.487Z,21.30
2022-11-18T15:51:46.391Z,21.30
2022-11-18T15:54:13.727Z,21.30
2022-11-18T15:56:41.767Z,21.30
2022-11-18T15:59:16.301Z,21.30
2022-11-18T16:01:45.910Z,21.30
2022-11-18T16:04:15.164Z,21.30
2022-11-18T16:06:46.192Z,21.30
2022-11-18T16:09:14.691Z,21.30
2022-11-18T16:12:00.468Z,21.30
2022-11-18T16:14:27.512Z,21.30
2022-11-18T16:16:56.440Z,21.20
2022-11-18T16:19:26.718Z,21.30
2022-11-18T16:21:57.552Z,21.20
2022-11-18T16:24:28.965Z,21.30
2022-11-18T16:26:56.671Z,21.20
2022-11-18T16:29:27.218Z,21.20
2022-11-18T16:31:54.759Z,21.20
2022-11-18T16:34:24.378Z,21.20
2022-11-18T16:36:53.626Z,21.30
2022-11-18T16:39:26.185Z,21.30
2022-11-18T16:42:07.814Z,21.20
2022-11-18T16:44:36.069Z,21.30
2022-11-18T16:47:07.770Z,21.20
2022-11-18T16:49:39.434Z,21.20
2022-11-18T16:52:08.133Z,21.30
2022-11-18T16:54:41.043Z,21.30
2022-11-18T16:57:15.384Z,21.30
2022-11-18T16:59:42.225Z,21.30
2022-11-18T17:02:12.976Z,21.30
2022-11-18T17:04:40.038Z,21.30
2022-11-18T17:07:07.424Z,21.30
2022-11-18T17:09:34.360Z,21.30
2022-11-18T17:12:01.351Z,21.30
2022-11-18T17:14:30.355Z,21.30
2022-11-18T17:16:57.858Z,21.30
2022-11-18T17:19:24.894Z,21.30
2022-11-18T17:21:53.335Z,21.30
2022-11-18T17:24:22.630Z,21.30
2022-11-18T17:26:51.323Z,21.30
2022-11-18T17:29:18.591Z,21.30
2022-11-18T17:31:45.715Z,21.30
2022-11-18T17:34:14.857Z,21.30
2022-11-18T17:36:42.386Z,21.30
2022-11-18T17:39:11.001Z,21.30
2022-11-18T17:41:57.159Z,21.30
2022-11-18T17:44:24.684Z,21.30
2022-11-18T17:46:52.256Z,21.30
2022-11-18T17:49:21.398Z,21.30
2022-11-18T17:51:48.778Z,21.30
2022-11-18T17:54:16.602Z,21.40
2022-11-18T17:56:43.717Z,21.30
2022-11-18T17:59:10.596Z,21.30
2022-11-18T18:01:37.536Z,21.30
2022-11-18T18:04:07.522Z,21.30
2022-11-18T18:06:34.298Z,21.30
2022-11-18T18:09:01.133Z,21.30
2022-11-18T18:11:28.293Z,21.30
2022-11-18T18:14:14.156Z,21.30
2022-11-18T18:16:46.339Z,21.30
2022-11-18T18:19:16.402Z,21.30
2022-11-18T18:21:43.714Z,21.30
2022-11-18T18:24:11.706Z,21.30
2022-11-18T18:26:38.954Z,21.30
2022-11-18T18:29:06.175Z,21.30
2022-11-18T18:31:35.694Z,21.30
2022-11-18T18:34:03.488Z,21.30
2022-11-18T18:36:33.121Z,21.30
2022-11-18T18:39:00.982Z,21.30
2022-11-18T18:41:27.811Z,21.30
2022-11-18T18:43:56.732Z,21.20
2022-11-18T18:46:32.058Z,21.30
2022-11-18T18:49:10.645Z,21.30
2022-11-18T18:51:56.321Z,21.30
2022-11-18T18:54:23.286Z,21.30
2022-11-18T18:56:50.639Z,21.30
2022-11-18T18:59:19.925Z,21.30
2022-11-18T19:01:46.850Z,21.20
2022-11-18T19:04:14.377Z,21.20
2022-11-18T19:07:00.617Z,21.20
2022-11-18T19:09:27.697Z,21.20
2022-11-18T19:12:13.170Z,21.20
2022-11-18T19:14:40.358Z,21.20
2022-11-18T19:17:12.020Z,21.20
2022-11-18T19:20:01.167Z,21.20
2022-11-18T19:22:32.858Z,21.20
2022-11-18T19:25:00.679Z,21.20
2022-11-18T19:27:28.149Z,21.10
2022-11-18T19:29:55.227Z,21.10
2022-11-18T19:32:22.356Z,21.10
2022-11-18T19:34:49.177Z,21.20
2022-11-18T19:37:15.958Z,21.10
2022-11-18T19:39:42.813Z,21.10
2022-11-18T19:42:11.023Z,21.10
2022-11-18T19:44:38.741Z,21.10
2022-11-18T19:47:06.214Z,21.10
2022-11-18T19:49:33.975Z,21.10
2022-11-18T19:52:00.778Z,21.10
2022-11-18T19:54:30.139Z,21.10
2022-11-18T19:56:57.493Z,21.10
2022-11-18T19:59:24.272Z,21.10
2022-11-18T20:01:51.120Z,21.10
2022-11-18T20:04:17.968Z,21.10
2022-11-18T20:06:45.664Z,21.00
2022-11-18T20:09:13.368Z,21.10
2022-11-18T20:11:40.309Z,21.10
2022-11-18T20:14:08.391Z,21.10
2022-11-18T20:16:37.353Z,21.10
2022-11-18T20:19:10.759Z,21.00
2022-11-18T20:21:39.063Z,21.00
2022-11-18T20:24:07.330Z,21.00
2022-11-18T20:26:37.881Z,21.00
2022-11-18T20:29:05.973Z,21.00
2022-11-18T20:31:35.588Z,21.00
2022-11-18T20:34:05.986Z,21.00
2022-11-18T20:36:35.647Z,21.00
2022-11-18T20:39:11.187Z,21.00
2022-11-18T20:41:38.508Z,21.00
2022-11-18T20:44:06.074Z,21.00
2022-11-18T20:46:34.413Z,21.00
2022-11-18T20:49:01.790Z,21.00
2022-11-18T20:51:29.209Z,21.00
2022-11-18T20:53:57.389Z,21.00
2022-11-18T20:56:30.774Z,21.00
2022-11-18T20:58:58.309Z,21.00
2022-11-18T21:01:29.915Z,21.00
2022-11-18T21:03:58.914Z,21.00
2022-11-18T21:06:30.087Z,21.00
2022-11-18T21:09:05.033Z,21.00
2022-11-18T21:11:34.775Z,21.00
2022-11-18T21:14:24.062Z,21.00
2022-11-18T21:16:57.566Z,21.00
2022-11-18T21:19:26.134Z,21.00
2022-11-18T21:21:54.001Z,20.90
2022-11-18T21:24:27.978Z,20.90
2022-11-18T21:26:55.546Z,21.00
2022-11-18T21:29:24.444Z,21.00
2022-11-18T21:31:51.830Z,21.00
2022-11-18T21:34:19.000Z,21.00
2022-11-18T21:36:50.393Z,20.90
2022-11-18T21:39:20.495Z,20.90
2022-11-18T21:41:52.048Z,20.90
2022-11-18T21:44:21.998Z,21.00
2022-11-18T21:46:48.836Z,20.90
2022-11-18T21:49:15.596Z,20.90
2022-11-18T21:51:44.194Z,21.00
2022-11-18T21:54:12.595Z,20.90
2022-11-18T21:56:39.681Z,20.90
2022-11-18T21:59:07.688Z,20.90
2022-11-18T22:01:34.882Z,20.90
2022-11-18T22:04:04.107Z,20.90
2022-11-18T22:06:33.759Z,20.90
2022-11-18T22:09:04.461Z,20.90
2022-11-18T22:11:31.947Z,20.90
2022-11-18T22:13:59.261Z,20.90
2022-11-18T22:16:29.188Z,20.90
2022-11-18T22:19:01.352Z,20.90
2022-11-18T22:21:31.341Z,20.90
2022-11-18T22:24:00.070Z,20.90
2022-11-18T22:26:27.682Z,20.90
2022-11-18T22:28:56.953Z,20.90
2022-11-18T22:31:25.771Z,20.90
2022-11-18T22:33:54.067Z,20.90
2022-11-18T22:36:22.716Z,20.90
2022-11-18T22:38:49.915Z,20.80
2022-11-18T22:41:40.705Z,20.90
2022-11-18T22:44:08.722Z,20.90
2022-11-18T22:46:42.231Z,20.80
2022-11-18T22:49:10.661Z,20.90
2022-11-18T22:51:38.290Z,20.80
2022-11-18T22:54:38.357Z,20.80
2022-11-18T22:56:55.724Z,20.80
2022-11-18T22:59:30.745Z,20.90
2022-11-18T23:01:57.619Z,20.80
2022-11-18T23:04:24.949Z,20.80
2022-11-18T23:06:53.946Z,20.80
2022-11-18T23:09:21.041Z,20.80
2022-11-18T23:12:09.722Z,20.80
2022-11-18T23:14:36.994Z,20.80
2022-11-18T23:17:04.762Z,20.80
2022-11-18T23:19:32.030Z,20.80
2022-11-18T23:21:58.856Z,20.80
2022-11-18T23:24:25.691Z,20.80
2022-11-18T23:26:52.479Z,20.80
2022-11-18T23:29:20.268Z,20.80
2022-11-18T23:31:47.809Z,20.80
2022-11-18T23:34:15.583Z,20.80
2022-11-18T23:36:42.531Z,20.80
2022-11-18T23:39:09.827Z,20.70
2022-11-18T23:41:39.147Z,20.70
2022-11-18T23:44:06.606Z,20.70
2022-11-18T23:46:34.593Z,20.70
2022-11-18T23:49:01.385Z,20.70
2022-11-18T23:51:28.201Z,20.80
2022-11-18T23:53:57.351Z,20.80
2022-11-18T23:56:26.925Z,20.70
2022-11-18T23:58:56.260Z,20.70
